Etusivu
METAR-TAF:

METAR-TAF

Lentoasemat :

Capo Mele

Andora, Italia

Leveyspiiri: 43-57N, Pituuspiiri: 008-10E, korkeus merenpinnasta: 220 m

Tämänhetkinen sää

Tämä raportti tehtiin 49 minuuttia sitten, kello 04.55 UTC
Tuuli 6 kn pohjoisesta
Lämpötila 8°C
Kosteus 31%
Ilmanpaine 1031 hPa
Näkyvyys 10 km tai enemmän
ei pilviä alle 1500 m:ssä eikä cumulonimbus-pilviä

METAR: LIMU 240455Z 01006KT CAVOK 08/M08 Q1031 RMK SKC QUK / QUL / VIS MAR 30 KM VIS MIN 9999

Aika: 06:44 (05:44 UTC)


TAF: puuttuu

Säähavainnot ja -ennusteet yli 4000 lentoasemalta (METAR- ja TAF-raportit).

Käytössä olevat sääasemat on merkitty karttaan keltaisilla ja punaisilla pisteillä.

Aseta hiiri pisteen päälle nähdäksesi sääaseman nimen.

Klikkaa sitten nähdäksesi säähavainnot ja -ennusteet.

Kartan vaihtaminen: klikkaa mustalla rastilla varustettuja vihreitä pisteitä, niin voit zoomata sisään; viivalla varustettua vihreää pistettä, niin voit zoomata ulos tai vihreitä nuolia, niin pääset viereisille kartoille.


METAR-TAF: